Accueil
METAR-TAF:

METAR-TAF

Aéroports :

Base aérienne de Florennes

Florennes, Belgique

latitude: 50-14N, longitude: 004-39E, altitude: 279 m

Observation

Le bulletin a été fait il y a 31 minutes, à 18:55 UTC
Vent 1 kt de direction variable
Température 10°C
Humidité 82%
Pression 1030 hPa
Visibilité 10 km ou plus

METAR: EBFS 061855Z AUTO VRB01KT 9999 FEW160/// BKN220/// 10/07 Q1030 BLU

Heure: 21:26 (19:26 UTC)

Prévision

Le bulletin a été fait il y a 3 heures et 45 minutes, à 15:41 UTC
Prévision valable du 06 à 19 UTC au 07 à 07 UTC
Vent 8 kt de ouest/sud-ouest
Visibilité 10 km ou plus
Quelques nuages à une hauteur de 3500 ft
Evoluant progressivement
du 07 à 02 UTC au 07 à 04 UTC
Vent 4 kt de sud/sud-ouest
Visibilité: 3000 m
brume

TAF: EBFS 061541Z 0619/0707 24008KT 9999 FEW035 BECMG 0702/0704 20004KT 3000 BR

Observations et prévisions météorologiques de plus de 4000 aéroports (messages METAR et TAF).

Les stations disponibles sont représentées par des disques jaunes et rouges sur la carte.

Passer la souris dessus pour voir le nom de la station.

Cliquer dessus pour voir les observations et prévisions météorologiques.

Pour changer de carte: cliquez sur les boutons verts avec une croix noire pour zoomer, sur le bouton vert avec un tiret pour effectuer un zoom arrière, ou sur les flèches vertes pour les cartes adjacentes.


METAR-TAF: